createdAt,value
2019-05-25T00:00:29.271Z,9.25
2019-05-25T00:02:58.191Z,8.98
2019-05-25T00:05:26.674Z,9.13
2019-05-25T00:07:55.792Z,8.95
2019-05-25T00:10:27.412Z,9.80
2019-05-25T00:12:55.971Z,10.48
2019-05-25T00:15:24.386Z,10.10
2019-05-25T00:17:53.256Z,11.03
2019-05-25T00:20:24.604Z,9.58
2019-05-25T00:22:53.331Z,10.40
2019-05-25T00:25:22.100Z,8.70
2019-05-25T00:27:50.918Z,9.50
2019-05-25T00:30:19.631Z,9.10
2019-05-25T00:32:49.580Z,8.63
2019-05-25T00:35:19.734Z,10.35
2019-05-25T00:37:48.705Z,9.75
2019-05-25T00:40:17.682Z,10.70
2019-05-25T00:42:46.307Z,10.30
2019-05-25T00:45:15.433Z,9.68
2019-05-25T00:47:47.277Z,9.70
2019-05-25T00:50:15.679Z,10.18
2019-05-25T00:52:44.119Z,10.00
2019-05-25T00:55:13.875Z,11.12
2019-05-25T00:57:42.420Z,10.08
2019-05-25T01:00:13.365Z,10.20
2019-05-25T01:02:42.074Z,10.65
2019-05-25T01:05:11.187Z,9.60
2019-05-25T01:07:39.701Z,11.57
2019-05-25T01:10:13.753Z,8.65
2019-05-25T01:12:42.569Z,10.05
2019-05-25T01:15:11.538Z,9.63
2019-05-25T01:17:39.937Z,10.45
2019-05-25T01:20:10.465Z,9.65
2019-05-25T01:22:39.546Z,9.78
2019-05-25T01:25:09.227Z,10.50
2019-05-25T01:27:37.960Z,9.30
2019-05-25T01:30:09.147Z,10.35
2019-05-25T01:32:37.869Z,10.00
2019-05-25T01:35:06.530Z,10.65
2019-05-25T01:37:35.259Z,10.20
2019-05-25T01:40:05.920Z,10.55
2019-05-25T01:42:34.714Z,10.25
2019-05-25T01:45:04.429Z,10.08
2019-05-25T01:47:32.863Z,10.90
2019-05-25T01:50:02.849Z,9.70
2019-05-25T01:55:03.965Z,10.30
2019-05-25T01:57:32.651Z,10.15
2019-05-25T02:00:06.619Z,12.20
2019-05-25T02:02:35.600Z,10.38
2019-05-25T02:05:09.800Z,10.23
2019-05-25T02:07:38.543Z,9.68
2019-05-25T02:10:07.563Z,10.65
2019-05-25T02:12:36.244Z,9.90
2019-05-25T02:15:08.731Z,11.08
2019-05-25T02:17:37.435Z,10.55
2019-05-25T02:20:09.412Z,9.90
2019-05-25T02:22:38.319Z,9.98
2019-05-25T02:25:18.060Z,9.83
2019-05-25T02:27:41.977Z,10.85
2019-05-25T02:30:14.037Z,10.32
2019-05-25T02:32:42.398Z,11.65
2019-05-25T02:35:23.104Z,10.28
2019-05-25T02:37:51.820Z,10.80
2019-05-25T02:40:23.562Z,10.68
2019-05-25T02:42:52.579Z,12.65
2019-05-25T02:45:24.044Z,11.70
2019-05-25T02:47:52.824Z,12.28
2019-05-25T02:50:21.409Z,14.03
2019-05-25T02:52:50.631Z,11.55
2019-05-25T02:55:33.223Z,12.60
2019-05-25T02:57:50.559Z,12.80
2019-05-25T03:00:22.284Z,12.65
2019-05-25T03:02:58.646Z,14.15
2019-05-25T03:05:27.250Z,13.35
2019-05-25T03:07:57.121Z,12.37
2019-05-25T03:10:25.829Z,12.53
2019-05-25T03:12:56.675Z,13.30
2019-05-25T03:15:26.152Z,13.15
2019-05-25T03:17:55.143Z,13.65
2019-05-25T03:20:23.894Z,13.45
2019-05-25T03:22:54.035Z,13.20
2019-05-25T03:25:25.414Z,13.65
2019-05-25T03:27:55.485Z,12.55
2019-05-25T03:30:34.835Z,12.18
2019-05-25T03:33:06.535Z,11.75
2019-05-25T03:35:36.906Z,13.18
2019-05-25T03:38:06.645Z,11.90
2019-05-25T03:40:39.552Z,12.58
2019-05-25T03:43:09.546Z,11.93
2019-05-25T03:48:06.154Z,12.23
2019-05-25T03:50:38.827Z,11.50
2019-05-25T03:53:10.921Z,11.60
2019-05-25T03:55:41.671Z,10.43
2019-05-25T03:58:13.191Z,9.00
2019-05-25T04:00:49.315Z,7.95
2019-05-25T04:03:36.335Z,7.05
2019-05-25T04:06:10.914Z,6.42
2019-05-25T04:08:43.966Z,5.50
2019-05-25T04:11:15.705Z,5.45
2019-05-25T04:13:49.087Z,5.00
2019-05-25T04:16:24.084Z,4.00
2019-05-25T04:18:57.102Z,5.47
2019-05-25T04:21:30.353Z,4.92
2019-05-25T04:24:04.064Z,4.80
2019-05-25T04:26:35.646Z,3.70
2019-05-25T04:29:07.821Z,4.60
2019-05-25T04:31:41.019Z,4.15
2019-05-25T04:34:10.995Z,4.15
2019-05-25T04:39:11.373Z,4.08
2019-05-25T04:41:42.011Z,4.30
2019-05-25T04:44:11.838Z,4.30
2019-05-25T04:46:59.468Z,4.37
2019-05-25T04:49:34.315Z,3.75
2019-05-25T04:52:06.345Z,4.50
2019-05-25T04:54:44.718Z,3.70
2019-05-25T04:57:20.645Z,4.22
2019-05-25T04:59:59.471Z,4.33
2019-05-25T05:02:36.491Z,3.60
2019-05-25T05:05:10.102Z,3.47
2019-05-25T05:07:42.557Z,3.70
2019-05-25T05:10:19.460Z,3.60
2019-05-25T05:12:54.752Z,3.65
2019-05-25T05:15:24.138Z,3.40
2019-05-25T05:17:52.969Z,3.55
2019-05-25T05:20:23.089Z,3.60
2019-05-25T05:22:52.455Z,3.62
2019-05-25T05:25:33.154Z,3.90
2019-05-25T05:28:06.460Z,3.65
2019-05-25T05:30:40.461Z,3.92
2019-05-25T05:33:18.547Z,3.87
2019-05-25T05:35:56.817Z,3.72
2019-05-25T05:38:27.079Z,3.60
2019-05-25T05:43:52.228Z,3.90
2019-05-25T05:46:27.743Z,3.40
2019-05-25T05:48:59.980Z,3.67
2019-05-25T05:51:31.280Z,3.40
2019-05-25T05:53:59.928Z,3.67
2019-05-25T05:56:30.914Z,3.35
2019-05-25T05:59:04.671Z,3.40
2019-05-25T06:01:34.746Z,3.67
2019-05-25T06:04:05.249Z,3.35
2019-05-25T06:06:34.777Z,3.40
2019-05-25T06:09:06.820Z,3.83
2019-05-25T06:11:36.496Z,3.67
2019-05-25T06:14:07.621Z,3.67
2019-05-25T06:16:37.555Z,3.42
2019-05-25T06:19:06.397Z,3.70
2019-05-25T06:21:36.242Z,3.65
2019-05-25T06:24:09.134Z,3.62
2019-05-25T06:26:38.380Z,3.58
2019-05-25T06:29:09.830Z,3.55
2019-05-25T06:31:39.147Z,3.30
2019-05-25T06:34:08.027Z,3.90
2019-05-25T06:36:37.041Z,3.67
2019-05-25T06:39:08.339Z,2.37
2019-05-25T06:41:36.944Z,3.05
2019-05-25T06:44:06.127Z,2.87
2019-05-25T06:46:35.063Z,2.77
2019-05-25T06:49:04.358Z,2.65
2019-05-25T06:51:33.829Z,2.58
2019-05-25T06:54:02.824Z,2.80
2019-05-25T06:56:31.493Z,2.47
2019-05-25T06:59:00.097Z,2.00
2019-05-25T07:01:29.036Z,2.22
2019-05-25T07:03:57.939Z,2.62
2019-05-25T07:06:27.498Z,2.40
2019-05-25T07:08:56.743Z,3.00
2019-05-25T07:11:27.972Z,2.70
2019-05-25T07:13:59.479Z,2.00
2019-05-25T07:16:31.021Z,2.20
2019-05-25T07:18:59.925Z,2.70
2019-05-25T07:21:30.152Z,2.10
2019-05-25T07:24:00.856Z,2.17
2019-05-25T07:26:31.164Z,2.05
2019-05-25T07:29:00.313Z,1.98
2019-05-25T07:31:30.358Z,2.22
2019-05-25T07:33:59.828Z,3.22
2019-05-25T07:36:28.979Z,4.30
2019-05-25T07:38:58.493Z,1.90
2019-05-25T07:41:28.595Z,1.52
2019-05-25T07:43:57.754Z,1.85
2019-05-25T07:46:27.751Z,1.50
2019-05-25T07:48:56.587Z,1.40
2019-05-25T07:51:26.078Z,1.90
2019-05-25T07:56:23.623Z,1.82
2019-05-25T07:58:52.341Z,1.83
2019-05-25T08:01:21.330Z,1.20
2019-05-25T08:03:50.780Z,1.22
2019-05-25T08:08:49.704Z,2.37
2019-05-25T08:11:18.674Z,2.85
2019-05-25T08:13:47.214Z,2.60
2019-05-25T08:16:16.348Z,1.40
2019-05-25T08:18:45.321Z,1.20
2019-05-25T08:21:14.611Z,1.40
2019-05-25T08:23:45.597Z,2.40
2019-05-25T08:26:16.348Z,1.92
2019-05-25T08:28:45.719Z,1.32
2019-05-25T08:31:18.670Z,1.65
2019-05-25T08:33:47.623Z,1.70
2019-05-25T08:36:16.544Z,1.35
2019-05-25T08:38:46.129Z,1.90
2019-05-25T08:41:15.320Z,1.37
2019-05-25T08:43:45.061Z,1.82
2019-05-25T08:46:13.664Z,1.47
2019-05-25T08:48:42.158Z,1.87
2019-05-25T08:51:10.753Z,1.57
2019-05-25T08:53:41.920Z,1.65
2019-05-25T08:56:09.867Z,1.80
2019-05-25T08:58:47.975Z,1.42
2019-05-25T09:01:10.446Z,1.60
2019-05-25T09:03:39.557Z,1.70
2019-05-25T09:06:09.321Z,1.70
2019-05-25T09:08:40.881Z,1.60
2019-05-25T09:11:13.585Z,1.67
2019-05-25T09:13:44.088Z,2.00
2019-05-25T09:16:17.743Z,2.08
2019-05-25T09:18:49.317Z,1.90
2019-05-25T09:21:19.001Z,2.70
2019-05-25T09:23:50.367Z,1.70
2019-05-25T09:26:19.594Z,1.90
2019-05-25T09:31:19.709Z,2.00
2019-05-25T09:33:48.995Z,2.17
2019-05-25T09:36:18.920Z,2.22
2019-05-25T09:38:48.645Z,2.00
2019-05-25T09:41:18.796Z,2.40
2019-05-25T09:43:48.164Z,2.25
2019-05-25T09:48:47.847Z,2.75
2019-05-25T09:51:18.412Z,2.55
2019-05-25T09:53:47.164Z,2.80
2019-05-25T09:56:16.600Z,2.40
2019-05-25T09:58:47.084Z,2.42
2019-05-25T10:01:17.146Z,2.00
2019-05-25T10:03:47.970Z,2.95
2019-05-25T10:06:17.221Z,4.03
2019-05-25T10:11:15.179Z,3.15
2019-05-25T10:13:44.723Z,4.62
2019-05-25T10:16:14.522Z,5.53
2019-05-25T10:21:14.424Z,3.80
2019-05-25T10:23:42.600Z,4.33
2019-05-25T10:26:11.226Z,5.17
2019-05-25T10:28:44.163Z,5.00
2019-05-25T10:31:12.709Z,4.72
2019-05-25T10:33:42.795Z,4.95
2019-05-25T10:36:21.164Z,5.15
2019-05-25T10:38:53.321Z,4.67
2019-05-25T10:41:23.306Z,4.17
2019-05-25T10:43:53.898Z,4.67
2019-05-25T10:46:22.992Z,4.15
2019-05-25T10:48:51.455Z,3.83
2019-05-25T10:51:20.785Z,3.27
2019-05-25T10:53:53.657Z,2.98
2019-05-25T10:56:26.603Z,4.00
2019-05-25T10:58:56.714Z,3.45
2019-05-25T11:01:25.911Z,3.75
2019-05-25T11:03:56.095Z,3.83
2019-05-25T11:06:25.737Z,3.70
2019-05-25T11:08:54.878Z,3.35
2019-05-25T11:11:35.559Z,3.45
2019-05-25T11:14:16.871Z,3.30
2019-05-25T11:19:48.868Z,3.60
2019-05-25T11:22:21.718Z,3.10
2019-05-25T11:24:54.006Z,3.15
2019-05-25T11:27:23.968Z,3.58
2019-05-25T11:30:08.547Z,3.40
2019-05-25T11:32:33.498Z,3.10
2019-05-25T11:35:07.365Z,3.67
2019-05-25T11:37:39.526Z,3.35
2019-05-25T11:40:11.078Z,2.98
2019-05-25T11:42:44.247Z,4.65
2019-05-25T11:45:21.924Z,3.83
2019-05-25T11:47:52.654Z,3.22
2019-05-25T11:50:33.169Z,3.67
2019-05-25T11:53:07.434Z,3.05
2019-05-25T11:55:38.234Z,3.65
2019-05-25T11:58:10.663Z,5.62
2019-05-25T12:00:42.654Z,3.30
2019-05-25T12:03:12.157Z,5.35
2019-05-25T12:05:41.903Z,2.85
2019-05-25T12:10:41.988Z,2.67
2019-05-25T12:13:10.911Z,2.30
2019-05-25T12:15:43.070Z,2.70
2019-05-25T12:18:12.746Z,2.50
2019-05-25T12:20:47.255Z,2.50
2019-05-25T12:23:21.000Z,2.60
2019-05-25T12:25:51.801Z,2.40
2019-05-25T12:28:27.110Z,2.25
2019-05-25T12:31:05.190Z,2.33
2019-05-25T12:33:34.977Z,2.35
2019-05-25T12:36:09.719Z,2.67
2019-05-25T12:38:43.048Z,2.62
2019-05-25T12:41:17.254Z,4.15
2019-05-25T12:43:48.903Z,2.05
2019-05-25T12:46:27.739Z,2.47
2019-05-25T12:48:58.115Z,2.45
2019-05-25T12:51:28.128Z,2.50
2019-05-25T12:53:57.604Z,2.42
2019-05-25T12:56:26.679Z,2.47
2019-05-25T12:58:55.741Z,2.62
2019-05-25T13:01:25.689Z,2.25
2019-05-25T13:03:54.538Z,2.52
2019-05-25T13:06:24.341Z,2.80
2019-05-25T13:11:20.964Z,2.95
2019-05-25T13:13:49.669Z,2.40
2019-05-25T13:16:19.220Z,2.80
2019-05-25T13:18:47.902Z,2.77
2019-05-25T13:21:16.302Z,2.50
2019-05-25T13:23:44.954Z,2.70
2019-05-25T13:26:13.692Z,2.65
2019-05-25T13:28:42.140Z,2.87
2019-05-25T13:31:12.096Z,2.67
2019-05-25T13:33:41.734Z,2.62
2019-05-25T13:36:10.618Z,2.72
2019-05-25T13:38:39.785Z,3.80
2019-05-25T13:41:08.851Z,3.22
2019-05-25T13:43:38.399Z,2.80
2019-05-25T13:46:07.261Z,3.37
2019-05-25T13:48:36.808Z,3.08
2019-05-25T13:51:06.743Z,2.67
2019-05-25T13:53:42.210Z,3.12
2019-05-25T13:56:11.725Z,2.95
2019-05-25T13:58:40.868Z,3.25
2019-05-25T14:01:09.579Z,2.80
2019-05-25T14:03:38.718Z,2.80
2019-05-25T14:06:07.726Z,3.70
2019-05-25T14:08:37.026Z,4.03
2019-05-25T14:11:07.321Z,3.60
2019-05-25T14:13:35.982Z,3.72
2019-05-25T14:16:11.732Z,3.52
2019-05-25T14:18:42.060Z,3.92
2019-05-25T14:21:11.058Z,3.37
2019-05-25T14:23:39.581Z,3.98
2019-05-25T14:26:08.880Z,3.50
2019-05-25T14:28:38.031Z,3.45
2019-05-25T14:31:06.953Z,3.42
2019-05-25T14:33:35.591Z,3.60
2019-05-25T14:36:05.785Z,3.58
2019-05-25T14:38:34.763Z,3.80
2019-05-25T14:41:04.844Z,3.60
2019-05-25T14:43:38.595Z,3.55
2019-05-25T14:46:10.331Z,4.03
2019-05-25T14:48:40.974Z,3.55
2019-05-25T14:51:14.292Z,4.28
2019-05-25T14:53:43.863Z,3.87
2019-05-25T14:56:14.556Z,4.30
2019-05-25T14:58:45.009Z,3.72
2019-05-25T15:01:15.272Z,4.72
2019-05-25T15:03:46.820Z,3.62
2019-05-25T15:06:20.721Z,4.10
2019-05-25T15:08:46.715Z,4.15
2019-05-25T15:11:16.361Z,4.70
2019-05-25T15:13:45.012Z,4.25
2019-05-25T15:16:13.771Z,3.70
2019-05-25T15:18:42.393Z,3.70
2019-05-25T15:21:13.230Z,4.50
2019-05-25T15:23:41.851Z,4.70
2019-05-25T15:26:10.374Z,4.08
2019-05-25T15:28:39.160Z,4.17
2019-05-25T15:34:41.687Z,4.20
2019-05-25T15:37:10.288Z,4.00
2019-05-25T15:39:40.590Z,3.85
2019-05-25T15:42:09.847Z,4.10
2019-05-25T15:44:40.756Z,3.98
2019-05-25T15:47:12.005Z,4.30
2019-05-25T15:49:49.568Z,4.00
2019-05-25T15:52:18.515Z,4.42
2019-05-25T15:54:47.100Z,4.28
2019-05-25T15:57:18.492Z,4.72
2019-05-25T15:59:47.352Z,4.87
2019-05-25T16:02:16.483Z,4.28
2019-05-25T16:04:46.176Z,4.77
2019-05-25T16:07:16.620Z,4.35
2019-05-25T16:09:48.019Z,4.10
2019-05-25T16:12:16.534Z,4.28
2019-05-25T16:14:48.447Z,4.28
2019-05-25T16:17:17.152Z,5.10
2019-05-25T16:19:46.026Z,7.83
2019-05-25T16:22:14.608Z,8.88
2019-05-25T16:24:43.526Z,23.20
2019-05-25T16:27:11.964Z,13.30
2019-05-25T16:29:40.695Z,6.58
2019-05-25T16:32:09.314Z,7.78
2019-05-25T16:34:37.797Z,7.35
2019-05-25T16:38:06.553Z,6.28
2019-05-25T16:40:35.601Z,7.45
2019-05-25T16:43:04.133Z,7.70
2019-05-25T16:46:00.583Z,33.63
2019-05-25T16:48:30.105Z,39.33
2019-05-25T16:50:59.191Z,19.48
2019-05-25T16:53:27.492Z,15.90
2019-05-25T16:55:55.962Z,10.20
2019-05-25T16:58:24.944Z,17.48
2019-05-25T17:00:58.328Z,11.67
2019-05-25T17:03:29.283Z,9.35
2019-05-25T17:05:58.954Z,9.05
2019-05-25T17:08:34.419Z,8.53
2019-05-25T17:11:07.990Z,8.53
2019-05-25T17:13:38.826Z,8.45
2019-05-25T17:16:17.664Z,10.08
2019-05-25T17:18:48.147Z,11.25
2019-05-25T17:21:18.149Z,11.28
2019-05-25T17:26:18.590Z,8.50
2019-05-25T17:28:49.273Z,7.67
2019-05-25T17:31:19.879Z,7.62
2019-05-25T17:33:48.307Z,15.32
2019-05-25T17:36:21.575Z,8.55
2019-05-25T17:38:51.050Z,8.75
2019-05-25T17:41:22.126Z,9.40
2019-05-25T17:43:50.593Z,8.03
2019-05-25T17:46:19.449Z,8.45
2019-05-25T17:48:48.397Z,7.97
2019-05-25T17:51:17.865Z,7.85
2019-05-25T17:53:46.728Z,8.83
2019-05-25T17:56:18.434Z,8.93
2019-05-25T17:58:47.312Z,9.03
2019-05-25T18:01:19.498Z,10.68
2019-05-25T18:04:05.438Z,10.68
2019-05-25T18:09:22.789Z,11.63
2019-05-25T18:11:52.901Z,12.53
2019-05-25T18:14:23.231Z,12.03
2019-05-25T18:16:54.775Z,12.73
2019-05-25T18:19:28.745Z,13.00
2019-05-25T18:22:02.045Z,12.95
2019-05-25T18:24:34.440Z,13.03
2019-05-25T18:27:11.672Z,13.22
2019-05-25T18:29:41.489Z,13.62
2019-05-25T18:34:48.161Z,13.85
2019-05-25T18:37:17.041Z,14.07
2019-05-25T18:39:45.852Z,13.20
2019-05-25T18:42:14.637Z,13.45
2019-05-25T18:44:44.134Z,13.85
2019-05-25T18:47:15.211Z,13.88
2019-05-25T18:49:44.339Z,14.63
2019-05-25T18:52:14.873Z,15.73
2019-05-25T18:54:44.767Z,14.35
2019-05-25T18:57:24.410Z,14.80
2019-05-25T18:59:56.722Z,15.83
2019-05-25T19:02:27.031Z,16.37
2019-05-25T19:05:01.452Z,15.45
2019-05-25T19:07:31.341Z,16.67
2019-05-25T19:12:28.685Z,17.25
2019-05-25T19:14:59.820Z,17.80
2019-05-25T19:17:29.014Z,16.77
2019-05-25T19:19:59.991Z,16.57
2019-05-25T19:22:29.833Z,17.30
2019-05-25T19:25:00.048Z,17.25
2019-05-25T19:27:29.899Z,16.60
2019-05-25T19:29:59.094Z,16.70
2019-05-25T19:32:29.219Z,16.17
2019-05-25T19:35:00.507Z,16.65
2019-05-25T19:37:29.750Z,16.12
2019-05-25T19:40:08.853Z,16.12
2019-05-25T19:45:27.595Z,17.92
2019-05-25T19:48:01.801Z,16.82
2019-05-25T19:50:36.511Z,17.80
2019-05-25T19:55:50.349Z,14.63
2019-05-25T19:58:19.903Z,15.88
2019-05-25T20:00:49.026Z,16.25
2019-05-25T20:03:24.750Z,17.43
2019-05-25T20:05:53.364Z,17.87
2019-05-25T20:08:22.513Z,17.45
2019-05-25T20:10:55.340Z,17.30
2019-05-25T20:13:26.258Z,19.15
2019-05-25T20:15:55.074Z,18.57
2019-05-25T20:18:24.956Z,20.82
2019-05-25T20:20:56.164Z,22.70
2019-05-25T20:23:30.472Z,22.62
2019-05-25T20:26:02.565Z,23.80
2019-05-25T20:31:27.868Z,25.30
2019-05-25T20:33:59.743Z,24.12
2019-05-25T20:36:37.990Z,23.77
2019-05-25T20:39:19.888Z,22.42
2019-05-25T20:41:56.737Z,21.97
2019-05-25T20:44:26.668Z,23.12
2019-05-25T20:46:56.432Z,23.30
2019-05-25T20:49:26.334Z,23.57
2019-05-25T20:51:56.139Z,24.98
2019-05-25T20:54:26.702Z,24.18
2019-05-25T20:56:56.361Z,24.45
2019-05-25T20:59:26.051Z,24.82
2019-05-25T21:01:59.456Z,26.23
2019-05-25T21:04:29.379Z,25.25
2019-05-25T21:06:59.903Z,25.10
2019-05-25T21:09:29.851Z,26.33
2019-05-25T21:11:59.944Z,26.80
2019-05-25T21:14:30.008Z,25.43
2019-05-25T21:19:26.893Z,25.85
2019-05-25T21:21:55.834Z,27.70
2019-05-25T21:24:37.104Z,27.85
2019-05-25T21:27:09.026Z,26.70
2019-05-25T21:29:39.133Z,27.02
2019-05-25T21:32:08.027Z,25.90
2019-05-25T21:34:36.812Z,26.35
2019-05-25T21:37:07.053Z,32.23
2019-05-25T21:39:36.432Z,29.95
2019-05-25T21:42:05.029Z,31.17
2019-05-25T21:44:33.609Z,31.48
2019-05-25T21:47:04.640Z,29.20
2019-05-25T21:49:33.950Z,27.30
2019-05-25T21:52:04.001Z,26.90
2019-05-25T21:57:06.141Z,26.02
2019-05-25T21:59:34.820Z,28.62
2019-05-25T22:02:04.243Z,26.23
2019-05-25T22:04:32.975Z,27.20
2019-05-25T22:07:02.850Z,26.65
2019-05-25T22:09:31.924Z,29.98
2019-05-25T22:12:01.555Z,29.05
2019-05-25T22:14:30.050Z,28.70
2019-05-25T22:16:58.518Z,30.68
2019-05-25T22:19:27.171Z,28.50
2019-05-25T22:21:58.061Z,28.20
2019-05-25T22:24:27.526Z,29.23
2019-05-25T22:26:57.038Z,29.63
2019-05-25T22:29:25.781Z,30.02
2019-05-25T22:31:54.840Z,28.65
2019-05-25T22:34:25.780Z,30.20
2019-05-25T22:36:54.058Z,31.73
2019-05-25T22:39:22.952Z,30.75
2019-05-25T22:41:51.613Z,28.73
2019-05-25T22:44:23.418Z,31.90
2019-05-25T22:46:54.044Z,30.30
2019-05-25T22:49:25.526Z,31.35
2019-05-25T22:52:00.764Z,31.65
2019-05-25T22:54:31.322Z,31.55
2019-05-25T22:57:01.868Z,31.15
2019-05-25T22:59:30.686Z,29.98
2019-05-25T23:01:59.249Z,30.40
2019-05-25T23:04:31.459Z,29.63
2019-05-25T23:07:01.198Z,30.40
2019-05-25T23:09:30.221Z,32.33
2019-05-25T23:11:59.246Z,31.60
2019-05-25T23:14:27.743Z,32.63
2019-05-25T23:16:56.305Z,30.48
2019-05-25T23:19:25.116Z,28.57
2019-05-25T23:21:53.545Z,29.95
2019-05-25T23:24:21.996Z,28.52
2019-05-25T23:26:50.795Z,28.38
2019-05-25T23:29:19.380Z,28.45
2019-05-25T23:31:51.528Z,28.32
2019-05-25T23:34:20.825Z,28.75
2019-05-25T23:36:49.781Z,28.05
2019-05-25T23:39:29.751Z,28.95
2019-05-25T23:42:23.015Z,26.82
2019-05-25T23:44:50.912Z,27.20
2019-05-25T23:47:19.591Z,29.12
2019-05-25T23:49:48.232Z,29.00
2019-05-25T23:52:16.721Z,28.90
2019-05-25T23:54:48.893Z,33.35
2019-05-25T23:57:21.310Z,31.97
2019-05-25T23:59:56.330Z,29.30
